Time;durP1;ratioP1;P1;durP2;ratioP2;P2;SDS_P1;SDS_P2;PMS_P1;PMS_P2;Temp;Humidity;BMP_temperature;BMP_pressure;BME280_temperature;BME280_humidity;BME280_pressure;Samples;Min_cycle;Max_cycle;Signal;HPM_P1;HPM_P2
2022/09/06 00:00:19;;;;;;;;;;;;;;;22.88;80.47;101103.72;7278974;19;153446;-60
2022/09/06 00:02:46;;;;;;;;;;;;;;;22.89;80.78;101102.56;7284857;19;152215;-60
2022/09/06 00:05:13;;;;;;;;;;;;;;;22.88;81.03;101098.09;7280109;19;153507;-60
2022/09/06 00:07:41;;;;;;;;;;;;;;;22.88;80.64;101092.44;7280682;19;154124;-60
2022/09/06 00:10:08;;;;;;;;;;;;;;;22.85;80.87;101093.06;7283201;19;151863;-60
2022/09/06 00:12:35;;;;;;;;;;;;;;;22.87;80.63;101092.75;7286814;19;153212;-60
2022/09/06 00:15:03;;;;;;;;;;;;;;;22.88;80.82;101092.44;7279205;19;152266;-60
2022/09/06 00:17:30;;;;;;;;;;;;;;;22.86;81.02;101099.53;7283101;19;152807;-61
2022/09/06 00:19:59;;;;;;;;;;;;;;;;;;7279030;19;153523;-60
2022/09/06 00:22:31;;;;;;;;;;;;;;;22.89;80.62;101098.91;7280291;19;158150;-60
2022/09/06 00:24:58;;;;;;;;;;;;;;;22.87;80.25;101099.22;7282757;19;153491;-60
2022/09/06 00:27:25;;;;;;;;;;;;;;;22.86;80.75;101091.09;7281687;19;154124;-60
2022/09/06 00:29:51;;;;;;;;;;;;;;;22.85;80.63;101090.25;7281888;19;152239;-60
2022/09/06 00:32:18;;;;;;;;;;;;;;;22.85;80.58;101089.44;7283276;19;152310;-60
2022/09/06 00:34:45;;;;;;;;;;;;;;;22.88;80.30;101094.44;7288523;19;153903;-60
2022/09/06 00:37:13;;;;;;;;;;;;;;;22.82;80.66;101098.53;7278171;19;153306;-60
2022/09/06 00:39:45;;;;;;;;;;;;;;;22.81;80.45;101096.84;7277265;19;153804;-60
2022/09/06 00:42:12;;;;;;;;;;;;;;;22.84;80.19;101108.34;7282465;19;152133;-60
2022/09/06 00:44:39;;;;;;;;;;;;;;;22.87;79.69;101107.69;7281085;19;152966;-61
2022/09/06 00:47:07;;;;;;;;;;;;;;;22.84;80.25;101105.53;7280738;19;154217;-60
2022/09/06 00:49:36;;;;;;;;;;;;;;;;;;7280949;19;153177;-60
2022/09/06 00:52:09;;;;;;;;;;;;;;;22.88;78.86;101106.53;7277857;19;180428;-60
2022/09/06 00:54:37;;;;;;;;;;;;;;;22.85;79.06;101107.16;7233055;19;159123;-60
2022/09/06 00:57:04;;;;;;;;;;;;;;;22.83;79.46;101101.03;7277411;19;153053;-60
2022/09/06 00:59:33;;;;;;;;;;;;;;;22.85;78.38;101098.72;7276074;19;154266;-60
2022/09/06 01:02:00;;;;;;;;;;;;;;;22.83;79.04;101094.56;7278807;19;152656;-61
2022/09/06 01:04:32;;;;;;;;;;;;;;;22.82;79.05;101096.53;7277474;19;154465;-60
2022/09/06 01:07:15;;;;;;;;;;;;;;;22.84;79.03;101108.34;7276473;19;152413;-60
2022/09/06 01:09:48;;;;;;;;;;;;;;;22.85;78.80;101092.25;7279699;19;152139;-60
2022/09/06 01:12:24;;;;;;;;;;;;;;;22.82;78.65;101104.16;7278574;19;153055;-60
2022/09/06 01:14:53;;;;;;;;;;;;;;;22.86;78.21;101091.09;7275850;19;154185;-60
2022/09/06 01:17:20;;;;;;;;;;;;;;;22.85;78.65;101100.72;7279347;19;153254;-60
2022/09/06 01:19:58;;;;;;;;;;;;;;;22.80;78.68;101100.84;7283196;19;153535;-60
2022/09/06 01:22:36;;;;;;;;;;;;;;;22.81;78.23;101103.31;7278078;19;152184;-60
2022/09/06 01:25:17;;;;;;;;;;;;;;;22.79;78.43;101102.81;7279121;19;153586;-60
2022/09/06 01:28:11;;;;;;;;;;;;;;;22.81;78.30;101089.22;7283334;19;153973;-60
2022/09/06 01:30:43;;;;;;;;;;;;;;;22.83;77.65;101072.84;7284865;19;152532;-60
2022/09/06 01:33:23;;;;;;;;;;;;;;;22.81;77.89;101077.13;7287894;19;153966;-60
2022/09/06 01:35:54;;;;;;;;;;;;;;;22.81;77.70;101077.13;7284064;19;152325;-60
2022/09/06 01:38:20;;;;;;;;;;;;;;;22.78;78.13;101080.59;7287250;19;152096;-60
2022/09/06 01:40:47;;;;;;;;;;;;;;;22.78;78.03;101084.25;7293020;19;152252;-60
2022/09/06 01:43:22;;;;;;;;;;;;;;;22.79;77.45;101079.47;7288155;19;152275;-60
2022/09/06 01:45:49;;;;;;;;;;;;;;;22.79;77.57;101087.91;7286829;19;153622;-60
2022/09/06 01:48:26;;;;;;;;;;;;;;;22.82;77.52;101071.19;7286490;19;153323;-60
2022/09/06 01:51:24;;;;;;;;;;;;;;;22.82;77.65;101071.19;7285266;19;152000;-60
2022/09/06 01:54:04;;;;;;;;;;;;;;;22.79;77.73;101071.00;7285475;19;152536;-60
2022/09/06 01:56:50;;;;;;;;;;;;;;;22.77;77.42;101071.31;7283413;19;154671;-60
2022/09/06 01:59:17;;;;;;;;;;;;;;;22.77;77.06;101073.28;7285706;19;153275;-60
2022/09/06 02:01:52;;;;;;;;;;;;;;;22.78;77.47;101069.34;7286370;19;152593;-60
2022/09/06 02:04:28;;;;;;;;;;;;;;;22.77;76.67;101067.66;7292439;19;152878;-60
2022/09/06 02:07:00;;;;;;;;;;;;;;;22.78;76.72;101069.34;7283738;19;153832;-60
2022/09/06 02:09:30;;;;;;;;;;;;;;;22.76;77.26;101058.38;7285613;19;154102;-60
2022/09/06 02:12:07;;;;;;;;;;;;;;;22.79;77.18;101063.38;7283124;19;152713;-60
2022/09/06 02:14:38;;;;;;;;;;;;;;;22.77;77.12;101064.84;7285020;19;152678;-60
2022/09/06 02:17:07;;;;;;;;;;;;;;;22.77;76.87;101060.03;7285154;19;153421;-60
2022/09/06 02:19:36;;;;;;;;;;;;;;;22.77;77.20;101062.03;7283281;19;153329;-60
2022/09/06 02:22:11;;;;;;;;;;;;;;;22.76;76.95;101058.38;7283797;19;153022;-60
2022/09/06 02:24:39;;;;;;;;;;;;;;;22.81;76.49;101060.22;7284399;19;153487;-60
2022/09/06 02:27:06;;;;;;;;;;;;;;;22.79;76.62;101054.94;7292752;19;152063;-60
2022/09/06 02:29:34;;;;;;;;;;;;;;;22.83;76.55;101049.47;7283113;19;154035;-60
2022/09/06 02:32:17;;;;;;;;;;;;;;;22.78;76.64;101056.09;7284399;19;152879;-60
2022/09/06 02:34:55;;;;;;;;;;;;;;;22.77;76.85;101065.69;7284640;19;152358;-60
2022/09/06 02:37:22;;;;;;;;;;;;;;;22.79;76.52;101059.72;7282557;19;153953;-60
2022/09/06 02:39:49;;;;;;;;;;;;;;;22.80;76.38;101053.78;7283375;19;152695;-60
2022/09/06 02:42:19;;;;;;;;;;;;;;;22.83;76.00;101047.50;7285378;19;152263;-60
2022/09/06 02:44:46;;;;;;;;;;;;;;;22.82;75.93;101048.66;7282142;19;153279;-60
2022/09/06 02:47:13;;;;;;;;;;;;;;;22.82;75.90;101045.00;7284792;19;152403;-60
2022/09/06 02:49:45;;;;;;;;;;;;;;;22.80;75.96;101030.41;7291469;19;152410;-59
2022/09/06 02:52:19;;;;;;;;;;;;;;;22.81;76.06;101029.25;7283187;19;151956;-59
2022/09/06 02:54:45;;;;;;;;;;;;;;;22.79;75.79;101023.09;7284524;19;152090;-59
2022/09/06 02:57:13;;;;;;;;;;;;;;;22.80;76.03;101021.97;7282692;19;152622;-60
2022/09/06 02:59:45;;;;;;;;;;;;;;;22.82;75.73;101022.47;7283503;19;152649;-60
2022/09/06 03:02:27;;;;;;;;;;;;;;;22.85;75.12;101024.66;7285021;19;153755;-59
2022/09/06 03:05:00;;;;;;;;;;;;;;;22.88;74.96;101021.19;7281690;19;154541;-60
2022/09/06 03:07:27;;;;;;;;;;;;;;;22.85;75.51;101027.47;7283620;19;152722;-60
2022/09/06 03:09:55;;;;;;;;;;;;;;;22.82;75.27;101022.47;7283189;19;152660;-60
2022/09/06 03:12:22;;;;;;;;;;;;;;;22.89;75.20;101015.22;7291549;19;153375;-60
2022/09/06 03:14:48;;;;;;;;;;;;;;;;;;7280477;19;154825;-59
2022/09/06 03:17:19;;;;;;;;;;;;;;;22.83;75.29;101005.25;7282829;19;181021;-59
2022/09/06 03:19:52;;;;;;;;;;;;;;;22.86;75.36;101012.19;7283284;19;152116;-59
2022/09/06 03:22:22;;;;;;;;;;;;;;;22.85;75.14;101014.19;7282071;19;152798;-59
2022/09/06 03:24:49;;;;;;;;;;;;;;;22.84;75.22;101012.53;7282542;19;153661;-59
2022/09/06 03:27:15;;;;;;;;;;;;;;;22.85;74.86;101007.75;7284126;19;152604;-59
2022/09/06 03:29:42;;;;;;;;;;;;;;;22.84;74.83;101006.91;7284419;19;153162;-59
2022/09/06 03:32:09;;;;;;;;;;;;;;;22.81;75.38;100999.09;7282104;19;153320;-59
2022/09/06 03:34:35;;;;;;;;;;;;;;;22.82;75.05;101003.56;7285731;19;153142;-59
2022/09/06 03:37:02;;;;;;;;;;;;;;;22.81;75.25;100985.00;7281703;19;153705;-59
2022/09/06 03:39:29;;;;;;;;;;;;;;;22.84;75.41;100977.91;7285113;19;153071;-59
2022/09/06 03:41:56;;;;;;;;;;;;;;;22.83;75.37;100974.25;7283858;19;152317;-59
2022/09/06 03:44:22;;;;;;;;;;;;;;;22.85;75.80;100979.56;7283016;19;154017;-59
2022/09/06 03:46:50;;;;;;;;;;;;;;;22.84;75.18;100975.09;7283593;19;153640;-59
2022/09/06 03:49:23;;;;;;;;;;;;;;;22.88;75.79;100978.91;7283547;19;152331;-59
2022/09/06 03:51:50;;;;;;;;;;;;;;;;;;7280249;19;153805;-59
2022/09/06 03:54:16;;;;;;;;;;;;;;;22.89;75.87;100991.84;7289826;19;159691;-58
2022/09/06 03:56:43;;;;;;;;;;;;;;;22.87;74.54;100980.06;7282031;19;152705;-59
2022/09/06 03:59:09;;;;;;;;;;;;;;;22.86;75.36;100984.03;7282954;19;152563;-59
2022/09/06 04:01:36;;;;;;;;;;;;;;;22.88;74.94;100978.91;7282784;19;153374;-59
2022/09/06 04:04:03;;;;;;;;;;;;;;;22.88;75.75;100982.56;7281751;19;153452;-59
2022/09/06 04:06:29;;;;;;;;;;;;;;;22.88;75.62;100985.38;7281197;19;152296;-59
2022/09/06 04:08:56;;;;;;;;;;;;;;;;;;7283529;19;153037;-59
2022/09/06 04:11:23;;;;;;;;;;;;;;;22.89;75.36;100987.06;7280926;19;183095;-59
2022/09/06 04:13:49;;;;;;;;;;;;;;;22.87;75.15;100986.53;7283597;19;152374;-59
2022/09/06 04:16:17;;;;;;;;;;;;;;;22.86;75.78;100986.84;7286799;19;153511;-59
2022/09/06 04:18:44;;;;;;;;;;;;;;;22.88;75.73;100990.19;7283758;19;154129;-59
2022/09/06 04:21:11;;;;;;;;;;;;;;;22.89;75.36;100997.50;7276948;19;153352;-59
2022/09/06 04:23:43;;;;;;;;;;;;;;;;;;7279332;19;152613;-59
2022/09/06 04:26:27;;;;;;;;;;;;;;;22.92;75.55;100983.56;7280084;19;159520;-59
2022/09/06 04:28:54;;;;;;;;;;;;;;;22.87;75.06;100978.06;7283137;19;152471;-59
2022/09/06 04:31:20;;;;;;;;;;;;;;;22.91;74.51;100972.63;7279243;19;154835;-59
2022/09/06 04:33:47;;;;;;;;;;;;;;;22.89;75.27;100969.31;7282796;19;152407;-59
2022/09/06 04:36:14;;;;;;;;;;;;;;;22.87;74.89;100971.59;7279938;19;152620;-62
2022/09/06 04:38:42;;;;;;;;;;;;;;;22.85;75.32;100966.28;7289522;19;153318;-58
2022/09/06 04:41:09;;;;;;;;;;;;;;;22.86;74.20;100969.94;7278787;19;153343;-58
2022/09/06 04:43:36;;;;;;;;;;;;;;;22.84;74.52;100961.00;7281943;19;153967;-58
2022/09/06 04:46:05;;;;;;;;;;;;;;;22.84;74.37;100959.00;7280737;19;152554;-58
2022/09/06 04:48:32;;;;;;;;;;;;;;;22.84;74.23;100970.28;7283008;19;153473;-58
2022/09/06 04:50:58;;;;;;;;;;;;;;;22.83;74.83;100965.78;7277016;19;152680;-59
2022/09/06 04:53:25;;;;;;;;;;;;;;;22.84;75.24;100973.09;7280728;19;152647;-59
2022/09/06 04:55:52;;;;;;;;;;;;;;;22.84;74.02;100973.09;7280997;19;153725;-59
2022/09/06 04:58:19;;;;;;;;;;;;;;;22.84;73.99;100980.72;7281530;19;153302;-59
2022/09/06 05:00:46;;;;;;;;;;;;;;;22.84;74.85;100981.56;7286484;19;152693;-59
2022/09/06 05:03:13;;;;;;;;;;;;;;;22.85;74.21;100977.56;7288038;19;153492;-59
2022/09/06 05:05:40;;;;;;;;;;;;;;;22.85;74.82;100971.13;7285202;19;153972;-59
2022/09/06 05:08:06;;;;;;;;;;;;;;;22.84;73.89;100966.63;7287395;19;152790;-58
2022/09/06 05:10:33;;;;;;;;;;;;;;;22.83;73.80;100971.44;7284098;19;153669;-58
2022/09/06 05:13:03;;;;;;;;;;;;;;;22.83;74.08;100973.41;7288109;19;153057;-59
2022/09/06 05:15:30;;;;;;;;;;;;;;;22.81;74.04;100961.63;7286267;19;154095;-58
2022/09/06 05:18:02;;;;;;;;;;;;;;;22.82;73.64;100957.66;7287852;19;154209;-58
2022/09/06 05:20:28;;;;;;;;;;;;;;;22.80;73.99;100962.81;7285455;19;152090;-58
2022/09/06 05:22:55;;;;;;;;;;;;;;;22.80;73.90;100965.63;7291641;19;154109;-58
2022/09/06 05:25:22;;;;;;;;;;;;;;;22.79;73.69;100963.94;7286452;19;151946;-58
2022/09/06 05:27:48;;;;;;;;;;;;;;;22.79;74.17;100963.94;7288951;19;153106;-58
2022/09/06 05:30:16;;;;;;;;;;;;;;;22.78;74.12;100963.13;7284956;19;153237;-58
2022/09/06 05:32:43;;;;;;;;;;;;;;;22.79;73.71;100969.59;7288994;19;151749;-58
2022/09/06 05:35:10;;;;;;;;;;;;;;;22.79;74.04;100964.78;7286219;19;152493;-58
2022/09/06 05:37:43;;;;;;;;;;;;;;;22.79;73.79;100970.41;7286073;19;153673;-58
2022/09/06 05:40:10;;;;;;;;;;;;;;;22.78;73.69;100977.19;7287044;19;152957;-58
2022/09/06 05:42:37;;;;;;;;;;;;;;;22.79;74.43;100972.41;7287513;19;154425;-59
2022/09/06 05:45:05;;;;;;;;;;;;;;;22.80;74.08;100979.72;7290193;19;152572;-59
2022/09/06 05:47:34;;;;;;;;;;;;;;;22.80;74.23;100982.53;7284740;19;153087;-58
2022/09/06 05:50:01;;;;;;;;;;;;;;;22.78;75.44;100991.28;7285038;19;153995;-59
2022/09/06 05:52:31;;;;;;;;;;;;;;;22.79;74.85;100992.97;7284586;19;152185;-59
2022/09/06 05:55:03;;;;;;;;;;;;;;;22.80;74.69;100996.59;7286882;19;153414;-58
2022/09/06 05:57:30;;;;;;;;;;;;;;;22.79;74.61;101000.56;7285969;19;153547;-58
2022/09/06 06:00:11;;;;;;;;;;;;;;;22.79;74.77;100997.75;7285978;19;152061;-59
2022/09/06 06:02:48;;;;;;;;;;;;;;;22.79;74.31;101014.66;7287070;19;152324;-59
2022/09/06 06:05:15;;;;;;;;;;;;;;;22.80;74.67;101010.69;7290101;19;153541;-60
2022/09/06 06:07:41;;;;;;;;;;;;;;;22.81;75.18;101012.34;7285427;19;152147;-59
2022/09/06 06:10:08;;;;;;;;;;;;;;;22.77;74.78;101011.31;7285103;19;154445;-59
2022/09/06 06:12:37;;;;;;;;;;;;;;;22.80;74.35;101016.31;7285739;19;152321;-59
2022/09/06 06:15:13;;;;;;;;;;;;;;;22.78;74.67;101013.00;7283413;19;152430;-59
2022/09/06 06:17:40;;;;;;;;;;;;;;;22.78;74.61;101018.63;7286463;19;153589;-59
2022/09/06 06:20:07;;;;;;;;;;;;;;;22.77;74.86;101017.78;7284125;19;153107;-59
2022/09/06 06:22:34;;;;;;;;;;;;;;;22.77;74.94;101016.94;7285239;19;153185;-59
2022/09/06 06:25:10;;;;;;;;;;;;;;;22.78;74.29;101022.28;7285115;19;153326;-59
2022/09/06 06:27:51;;;;;;;;;;;;;;;22.78;74.21;101025.09;7294192;19;154040;-60
2022/09/06 06:30:18;;;;;;;;;;;;;;;22.77;74.15;101022.59;7282307;19;154475;-59
2022/09/06 06:32:45;;;;;;;;;;;;;;;22.75;74.62;101025.75;7286544;19;152337;-59
2022/09/06 06:35:17;;;;;;;;;;;;;;;22.76;74.81;101032.22;7284636;19;153546;-59
2022/09/06 06:37:52;;;;;;;;;;;;;;;22.75;74.52;101031.38;7283856;19;153848;-59
2022/09/06 06:40:24;;;;;;;;;;;;;;;22.73;74.81;101028.03;7284723;19;153647;-59
2022/09/06 06:42:50;;;;;;;;;;;;;;;22.81;74.04;101021.63;7286361;19;153988;-60
2022/09/06 06:45:19;;;;;;;;;;;;;;;22.73;74.54;101022.41;7281058;19;152773;-59
2022/09/06 06:47:48;;;;;;;;;;;;;;;22.70;74.56;101031.50;7286550;19;152812;-60
2022/09/06 06:50:14;;;;;;;;;;;;;;;22.59;74.77;101022.44;7290366;19;153249;-59
2022/09/06 06:52:41;;;;;;;;;;;;;;;22.55;75.46;101027.06;7284250;19;152574;-60
2022/09/06 06:55:08;;;;;;;;;;;;;;;22.50;75.75;101021.56;7286053;19;152735;-60
2022/09/06 06:57:35;;;;;;;;;;;;;;;22.42;75.71;101024.31;7284864;19;154177;-60
2022/09/06 07:00:03;;;;;;;;;;;;;;;22.36;76.53;101017.97;7285025;19;153288;-60
2022/09/06 07:02:34;;;;;;;;;;;;;;;22.32;76.42;101018.91;7286358;19;152517;-60
2022/09/06 07:05:04;;;;;;;;;;;;;;;22.31;77.22;101015.28;7282066;19;152908;-60
2022/09/06 07:07:51;;;;;;;;;;;;;;;22.27;77.46;101022.69;7284026;19;152200;-60
2022/09/06 07:10:18;;;;;;;;;;;;;;;22.21;78.34;101012.72;7283490;19;153329;-60
2022/09/06 07:13:06;;;;;;;;;;;;;;;22.20;78.34;101019.50;7292033;19;154405;-60
2022/09/06 07:15:41;;;;;;;;;;;;;;;22.22;78.40;101010.72;7283770;19;152723;-60
2022/09/06 07:18:08;;;;;;;;;;;;;;;22.20;78.93;101024.28;7283503;19;154904;-60
2022/09/06 07:20:42;;;;;;;;;;;;;;;22.18;79.02;101031.06;7283542;19;152538;-60
2022/09/06 07:23:43;;;;;;;;;;;;;;;22.09;79.78;101029.31;7283453;19;153238;-60
2022/09/06 07:26:30;;;;;;;;;;;;;;;22.14;79.65;101026.38;7281590;19;153315;-60
2022/09/06 07:29:00;;;;;;;;;;;;;;;22.12;80.37;101017.44;7284547;19;152136;-60
2022/09/06 07:31:28;;;;;;;;;;;;;;;22.07;80.35;101023.19;7281924;19;151718;-59
2022/09/06 07:34:23;;;;;;;;;;;;;;;22.11;80.63;101018.59;7281309;19;154154;-58
2022/09/06 07:37:02;;;;;;;;;;;;;;;22.12;81.48;101021.06;7290132;19;152530;-59
2022/09/06 07:39:31;;;;;;;;;;;;;;;22.06;81.98;101027.16;7280373;19;152338;-59
2022/09/06 07:41:58;;;;;;;;;;;;;;;22.06;82.44;101035.59;7280937;19;152170;-59
2022/09/06 07:44:28;;;;;;;;;;;;;;;22.01;82.90;101038.50;7283596;19;152831;-59
2022/09/06 07:47:09;;;;;;;;;;;;;;;22.00;83.41;101039.66;7280890;19;152453;-59
2022/09/06 07:49:55;;;;;;;;;;;;;;;21.95;83.52;101051.84;7283262;19;152160;-59
2022/09/06 07:52:42;;;;;;;;;;;;;;;21.89;84.00;101046.66;7281812;19;153020;-59
2022/09/06 07:55:28;;;;;;;;;;;;;;;21.88;84.05;101042.16;7281182;19;153388;-59
2022/09/06 07:57:55;;;;;;;;;;;;;;;21.87;83.91;101034.88;7292698;19;152353;-59
2022/09/06 08:00:22;;;;;;;;;;;;;;;21.84;83.76;101041.97;7279076;19;153072;-59
2022/09/06 08:02:49;;;;;;;;;;;;;;;21.81;84.97;101038.94;7281277;19;152534;-59
2022/09/06 08:05:16;;;;;;;;;;;;;;;21.82;85.15;101032.16;7280188;19;153668;-59
2022/09/06 08:08:03;;;;;;;;;;;;;;;21.84;84.65;101018.63;7279870;19;152454;-59
2022/09/06 08:10:56;;;;;;;;;;;;;;;21.86;84.98;101010.69;7280964;19;152589;-59
2022/09/06 08:13:35;;;;;;;;;;;;;;;21.87;84.77;101010.38;7282966;19;152882;-59
2022/09/06 08:16:04;;;;;;;;;;;;;;;21.85;84.96;101009.06;7280940;19;152791;-59
2022/09/06 08:18:33;;;;;;;;;;;;;;;21.86;84.42;101003.09;7283331;19;152053;-59
2022/09/06 08:21:13;;;;;;;;;;;;;;;21.91;84.16;101014.22;7286777;19;153294;-59
2022/09/06 08:23:43;;;;;;;;;;;;;;;21.91;84.25;101010.56;7282810;19;152272;-59
2022/09/06 08:26:10;;;;;;;;;;;;;;;21.85;84.53;101004.22;7282275;19;153996;-59
2022/09/06 08:28:38;;;;;;;;;;;;;;;21.88;84.44;100999.97;7281306;19;152672;-59
2022/09/06 08:31:08;;;;;;;;;;;;;;;21.79;84.50;101001.88;7281789;19;152171;-59
2022/09/06 08:33:36;;;;;;;;;;;;;;;21.76;83.64;101003.31;7282617;19;153519;-59
2022/09/06 08:36:04;;;;;;;;;;;;;;;21.79;83.65;101001.88;7276232;19;153522;-59
2022/09/06 08:38:31;;;;;;;;;;;;;;;21.79;83.31;101019.56;7282248;19;152524;-59
2022/09/06 08:41:08;;;;;;;;;;;;;;;21.79;82.52;101039.25;7281055;19;153367;-59
2022/09/06 08:43:36;;;;;;;;;;;;;;;21.70;83.02;101039.16;7290102;19;153495;-59
2022/09/06 08:46:03;;;;;;;;;;;;;;;21.73;83.19;101051.75;7278716;19;153655;-59
2022/09/06 08:48:32;;;;;;;;;;;;;;;21.75;83.33;101055.09;7282113;19;153329;-59
2022/09/06 08:51:02;;;;;;;;;;;;;;;21.74;83.14;101061.88;7279053;19;152210;-59
2022/09/06 08:53:29;;;;;;;;;;;;;;;21.75;83.00;101060.72;7282731;19;152639;-59
2022/09/06 08:56:28;;;;;;;;;;;;;;;21.78;83.10;101043.22;7279662;19;153235;-59
2022/09/06 08:59:05;;;;;;;;;;;;;;;21.78;82.66;101011.44;7281010;19;152007;-59
2022/09/06 09:01:55;;;;;;;;;;;;;;;21.80;82.39;101010.00;7279991;19;152478;-59
2022/09/06 09:04:23;;;;;;;;;;;;;;;21.79;82.33;101024.38;7278611;19;154078;-59
2022/09/06 09:06:57;;;;;;;;;;;;;;;21.79;82.04;101030.00;7287122;19;152312;-59
2022/09/06 09:09:27;;;;;;;;;;;;;;;21.82;82.02;101026.53;7280318;19;155383;-59
2022/09/06 09:11:54;;;;;;;;;;;;;;;21.84;82.09;101041.13;7281018;19;152743;-59
2022/09/06 09:14:26;;;;;;;;;;;;;;;21.87;81.73;101034.88;7281602;19;152606;-59
2022/09/06 09:17:02;;;;;;;;;;;;;;;21.85;81.95;101034.38;7280267;19;153928;-59
2022/09/06 09:19:32;;;;;;;;;;;;;;;21.82;81.61;101041.44;7282107;19;152121;-59
2022/09/06 09:21:59;;;;;;;;;;;;;;;21.82;81.83;101020.91;7278320;19;152615;-59
2022/09/06 09:24:26;;;;;;;;;;;;;;;21.84;81.95;101013.00;7279750;19;153959;-59
2022/09/06 09:27:12;;;;;;;;;;;;;;;21.86;81.63;101017.16;7280946;19;152135;-59
2022/09/06 09:29:55;;;;;;;;;;;;;;;21.90;80.99;101022.97;7286814;19;153201;-59
2022/09/06 09:32:49;;;;;;;;;;;;;;;21.90;80.76;101017.34;7281214;19;152480;-59
2022/09/06 09:35:36;;;;;;;;;;;;;;;21.87;79.97;101020.81;7279905;19;153056;-59
2022/09/06 09:38:08;;;;;;;;;;;;;;;21.80;79.57;101011.97;7280074;19;152656;-59
2022/09/06 09:40:54;;;;;;;;;;;;;;;21.77;79.39;101009.78;7281705;19;152936;-59
2022/09/06 09:43:35;;;;;;;;;;;;;;;21.81;78.46;101000.38;7278683;19;154064;-59
2022/09/06 09:46:08;;;;;;;;;;;;;;;21.82;78.23;101016.13;7275890;19;152156;-59
2022/09/06 09:48:35;;;;;;;;;;;;;;;21.78;77.53;101011.44;7286606;19;153120;-59
2022/09/06 09:51:15;;;;;;;;;;;;;;;21.72;77.14;101008.75;7283871;19;154342;-59
2022/09/06 09:53:53;;;;;;;;;;;;;;;21.74;74.98;101012.09;7292891;19;152290;-59
2022/09/06 09:56:24;;;;;;;;;;;;;;;21.70;74.53;101019.50;7285077;19;153589;-59
2022/09/06 09:58:57;;;;;;;;;;;;;;;21.73;73.28;101016.03;7229491;19;153379;-59
2022/09/06 10:01:33;;;;;;;;;;;;;;;21.74;72.34;101019.69;7283085;19;152326;-59
2022/09/06 10:04:08;;;;;;;;;;;;;;;21.74;71.33;101033.75;7283964;19;152778;-59
2022/09/06 10:07:19;;;;;;;;;;;;;;;21.77;70.93;101035.09;7281116;19;154310;-59
2022/09/06 10:10:05;;;;;;;;;;;;;;;21.70;69.73;101033.53;7284593;19;152608;-59
2022/09/06 10:12:39;;;;;;;;;;;;;;;21.74;70.17;101022.50;7285036;19;153508;-59
2022/09/06 10:15:07;;;;;;;;;;;;;;;21.79;69.74;101027.19;7284209;19;154703;-59
2022/09/06 10:17:48;;;;;;;;;;;;;;;21.78;69.89;101031.13;7284873;19;153829;-59
2022/09/06 10:20:17;;;;;;;;;;;;;;;21.83;69.70;101026.22;7282248;19;152635;-59
2022/09/06 10:22:59;;;;;;;;;;;;;;;21.86;70.25;101031.22;7278654;19;152997;-59
2022/09/06 10:25:37;;;;;;;;;;;;;;;21.86;70.84;101017.16;7283058;19;152942;-59
2022/09/06 10:28:13;;;;;;;;;;;;;;;21.90;70.83;101017.34;7282958;19;153562;-59
2022/09/06 10:30:52;;;;;;;;;;;;;;;21.92;71.06;101010.28;7282393;19;155048;-59
2022/09/06 10:33:27;;;;;;;;;;;;;;;21.96;71.41;101019.78;7282918;19;152348;-59
2022/09/06 10:35:56;;;;;;;;;;;;;;;22.01;70.36;101013.19;7280602;19;153757;-59
2022/09/06 10:38:27;;;;;;;;;;;;;;;22.03;70.42;101006.09;7291058;19;153523;-59
2022/09/06 10:41:00;;;;;;;;;;;;;;;22.00;70.16;101005.91;7282297;19;153455;-59
2022/09/06 10:43:34;;;;;;;;;;;;;;;22.02;70.81;101012.06;7281375;19;152320;-59
2022/09/06 10:46:02;;;;;;;;;;;;;;;22.03;68.99;101008.09;7282053;19;153257;-59
2022/09/06 10:48:32;;;;;;;;;;;;;;;22.01;68.39;101004.75;7281550;19;154347;-59
2022/09/06 10:51:22;;;;;;;;;;;;;;;22.04;68.00;101015.38;7281513;19;153537;-59
2022/09/06 10:54:01;;;;;;;;;;;;;;;22.10;66.33;101031.00;7283236;19;152545;-59
2022/09/06 10:56:30;;;;;;;;;;;;;;;22.11;66.98;101013.78;7283972;19;154539;-59
2022/09/06 10:59:20;;;;;;;;;;;;;;;22.11;67.63;101008.16;7283703;19;152184;-59
2022/09/06 11:02:21;;;;;;;;;;;;;;;22.14;66.14;101021.59;7289641;19;152100;-59
2022/09/06 11:04:49;;;;;;;;;;;;;;;22.17;65.87;100992.81;7282827;19;152133;-59
2022/09/06 11:07:46;;;;;;;;;;;;;;;22.17;65.89;101001.25;7283240;19;153194;-59
2022/09/06 11:10:46;;;;;;;;;;;;;;;22.26;65.54;101000.50;7283493;19;152634;-59
2022/09/06 11:13:20;;;;;;;;;;;;;;;22.23;66.57;100989.88;7284709;19;152262;-59
2022/09/06 11:16:04;;;;;;;;;;;;;;;22.21;66.31;100987.41;7281909;19;152656;-59
2022/09/06 11:18:49;;;;;;;;;;;;;;;22.25;66.37;100965.91;7284030;19;153159;-59
2022/09/06 11:21:27;;;;;;;;;;;;;;;22.24;66.54;100963.41;7281439;19;152183;-59
2022/09/06 11:24:08;;;;;;;;;;;;;;;22.23;66.29;100959.75;7282079;19;153689;-59
2022/09/06 11:26:41;;;;;;;;;;;;;;;22.23;66.83;100971.00;7290647;19;153283;-59
2022/09/06 11:29:22;;;;;;;;;;;;;;;22.27;65.80;100965.56;7285393;19;152931;-59
2022/09/06 11:31:54;;;;;;;;;;;;;;;22.27;66.42;100974.84;7280865;19;152668;-59
2022/09/06 11:34:50;;;;;;;;;;;;;;;22.26;66.55;100969.56;7284093;19;152450;-60
2022/09/06 11:37:41;;;;;;;;;;;;;;;22.31;66.20;100952.50;7282815;19;152802;-59
2022/09/06 11:40:15;;;;;;;;;;;;;;;22.33;65.74;100950.22;7281551;19;154362;-60
2022/09/06 11:43:00;;;;;;;;;;;;;;;22.32;66.57;100959.81;7282832;19;152263;-59
2022/09/06 11:45:38;;;;;;;;;;;;;;;22.31;66.22;100964.59;7282500;19;152182;-59
2022/09/06 11:48:32;;;;;;;;;;;;;;;22.31;66.82;100975.03;7283185;19;152955;-59
2022/09/06 11:51:00;;;;;;;;;;;;;;;22.37;65.07;100976.56;7288744;19;152885;-59
2022/09/06 11:53:31;;;;;;;;;;;;;;;22.42;64.45;100968.84;7281722;19;152589;-59
2022/09/06 11:56:01;;;;;;;;;;;;;;;22.42;65.31;100974.47;7283667;19;152531;-59
2022/09/06 11:58:30;;;;;;;;;;;;;;;22.42;64.91;100959.56;7284557;19;152212;-59
2022/09/06 12:01:12;;;;;;;;;;;;;;;22.43;65.72;100955.59;7281355;19;153904;-60
2022/09/06 12:03:41;;;;;;;;;;;;;;;22.40;65.22;100948.59;7282254;19;153304;-60
2022/09/06 12:06:30;;;;;;;;;;;;;;;22.46;65.05;100950.13;7279731;19;153182;-60
2022/09/06 12:08:58;;;;;;;;;;;;;;;22.46;65.45;100946.50;7282165;19;154481;-59
2022/09/06 12:11:32;;;;;;;;;;;;;;;22.46;65.52;100952.13;7279652;19;152841;-60
2022/09/06 12:13:59;;;;;;;;;;;;;;;22.49;65.31;100948.66;7289593;19;154229;-59
2022/09/06 12:16:46;;;;;;;;;;;;;;;22.47;65.72;100960.25;7281163;19;152305;-59
2022/09/06 12:19:31;;;;;;;;;;;;;;;22.50;65.59;100956.78;7281052;19;152300;-59
2022/09/06 12:21:58;;;;;;;;;;;;;;;22.57;65.34;100947.91;7279821;19;153252;-59
2022/09/06 12:24:51;;;;;;;;;;;;;;;22.59;65.18;100937.13;7279827;19;151681;-59
2022/09/06 12:27:33;;;;;;;;;;;;;;;22.59;65.08;100946.41;7280596;19;152520;-59
2022/09/06 12:30:36;;;;;;;;;;;;;;;22.61;64.96;100955.38;7278509;19;154648;-59
2022/09/06 12:33:06;;;;;;;;;;;;;;;22.59;64.27;100951.19;7282078;19;151977;-59
2022/09/06 12:35:34;;;;;;;;;;;;;;;22.58;64.51;100941.91;7233667;19;154899;-59
2022/09/06 12:38:23;;;;;;;;;;;;;;;22.59;64.85;100939.94;7271339;19;152320;-59
2022/09/06 12:40:55;;;;;;;;;;;;;;;22.57;64.53;100957.19;7274497;19;154066;-59
2022/09/06 12:43:22;;;;;;;;;;;;;;;22.56;64.00;100938.63;7278714;19;152433;-60
2022/09/06 12:45:52;;;;;;;;;;;;;;;22.57;63.67;100933.81;7279663;19;152106;-59
2022/09/06 12:48:26;;;;;;;;;;;;;;;22.56;63.97;100929.34;7281379;19;153173;-60
2022/09/06 12:51:05;;;;;;;;;;;;;;;22.55;64.40;100914.41;7276839;19;154593;-59
2022/09/06 12:53:44;;;;;;;;;;;;;;;22.56;63.58;100909.63;7278591;19;152530;-59
2022/09/06 12:56:29;;;;;;;;;;;;;;;22.54;64.29;100897.84;7280719;19;152061;-59
2022/09/06 12:59:09;;;;;;;;;;;;;;;22.57;64.41;100925.38;7286901;19;154895;-59